sensor_id;sensor_type;location;lat;lon;timestamp;P1;durP1;ratioP1;P2;durP2;ratioP2
3369;SDS011;42042;51.948;7.628;2022-07-29T00:00:14;3.13;;;1.87;;
3369;SDS011;42042;51.948;7.628;2022-07-29T00:02:42;4.83;;;2.30;;
3369;SDS011;42042;51.948;7.628;2022-07-29T00:05:09;3.53;;;2.40;;
3369;SDS011;42042;51.948;7.628;2022-07-29T00:07:38;3.30;;;1.93;;
3369;SDS011;42042;51.948;7.628;2022-07-29T00:10:06;12.53;;;2.40;;
3369;SDS011;42042;51.948;7.628;2022-07-29T00:12:35;3.07;;;2.30;;
3369;SDS011;42042;51.948;7.628;2022-07-29T00:15:02;4.70;;;1.87;;
3369;SDS011;42042;51.948;7.628;2022-07-29T00:17:30;3.67;;;2.20;;
3369;SDS011;42042;51.948;7.628;2022-07-29T00:19:58;3.40;;;1.90;;
3369;SDS011;42042;51.948;7.628;2022-07-29T00:22:26;3.83;;;2.37;;
3369;SDS011;42042;51.948;7.628;2022-07-29T00:24:53;13.40;;;2.13;;
3369;SDS011;42042;51.948;7.628;2022-07-29T00:27:20;2.53;;;1.80;;
3369;SDS011;42042;51.948;7.628;2022-07-29T00:29:49;6.57;;;2.40;;
3369;SDS011;42042;51.948;7.628;2022-07-29T00:32:16;2.33;;;2.00;;
3369;SDS011;42042;51.948;7.628;2022-07-29T00:34:43;3.77;;;2.20;;
3369;SDS011;42042;51.948;7.628;2022-07-29T00:37:28;2.40;;;2.00;;
3369;SDS011;42042;51.948;7.628;2022-07-29T00:39:55;3.13;;;2.20;;
3369;SDS011;42042;51.948;7.628;2022-07-29T00:42:22;2.10;;;1.80;;
3369;SDS011;42042;51.948;7.628;2022-07-29T00:44:51;2.50;;;1.90;;
3369;SDS011;42042;51.948;7.628;2022-07-29T00:47:18;4.07;;;2.33;;
3369;SDS011;42042;51.948;7.628;2022-07-29T00:49:45;1.60;;;1.50;;
3369;SDS011;42042;51.948;7.628;2022-07-29T00:52:13;2.30;;;2.10;;
3369;SDS011;42042;51.948;7.628;2022-07-29T00:54:40;5.33;;;2.20;;
3369;SDS011;42042;51.948;7.628;2022-07-29T00:57:07;2.60;;;1.90;;
3369;SDS011;42042;51.948;7.628;2022-07-29T00:59:34;5.43;;;2.40;;
3369;SDS011;42042;51.948;7.628;2022-07-29T01:02:03;2.50;;;2.30;;
3369;SDS011;42042;51.948;7.628;2022-07-29T01:04:30;3.33;;;2.33;;
3369;SDS011;42042;51.948;7.628;2022-07-29T01:06:57;4.27;;;2.33;;
3369;SDS011;42042;51.948;7.628;2022-07-29T01:09:25;2.60;;;2.07;;
3369;SDS011;42042;51.948;7.628;2022-07-29T01:11:53;3.60;;;1.80;;
3369;SDS011;42042;51.948;7.628;2022-07-29T01:14:21;2.40;;;2.20;;
3369;SDS011;42042;51.948;7.628;2022-07-29T01:16:51;7.10;;;2.63;;
3369;SDS011;42042;51.948;7.628;2022-07-29T01:22:10;6.03;;;2.40;;
3369;SDS011;42042;51.948;7.628;2022-07-29T01:24:45;2.23;;;2.03;;
3369;SDS011;42042;51.948;7.628;2022-07-29T01:27:25;7.13;;;2.10;;
3369;SDS011;42042;51.948;7.628;2022-07-29T01:29:57;3.50;;;1.97;;
3369;SDS011;42042;51.948;7.628;2022-07-29T01:32:26;2.67;;;2.07;;
3369;SDS011;42042;51.948;7.628;2022-07-29T01:34:56;3.07;;;2.53;;
3369;SDS011;42042;51.948;7.628;2022-07-29T01:37:26;3.77;;;2.27;;
3369;SDS011;42042;51.948;7.628;2022-07-29T01:39:56;3.80;;;2.30;;
3369;SDS011;42042;51.948;7.628;2022-07-29T01:42:26;2.30;;;2.10;;
3369;SDS011;42042;51.948;7.628;2022-07-29T01:44:55;2.40;;;2.20;;
3369;SDS011;42042;51.948;7.628;2022-07-29T01:47:26;3.60;;;2.10;;
3369;SDS011;42042;51.948;7.628;2022-07-29T01:49:54;5.03;;;2.37;;
3369;SDS011;42042;51.948;7.628;2022-07-29T01:52:23;3.47;;;2.13;;
3369;SDS011;42042;51.948;7.628;2022-07-29T01:54:53;4.10;;;2.10;;
3369;SDS011;42042;51.948;7.628;2022-07-29T01:57:25;3.20;;;2.27;;
3369;SDS011;42042;51.948;7.628;2022-07-29T01:59:53;3.83;;;2.47;;
3369;SDS011;42042;51.948;7.628;2022-07-29T02:02:21;3.43;;;2.40;;
3369;SDS011;42042;51.948;7.628;2022-07-29T02:04:50;8.33;;;2.30;;
3369;SDS011;42042;51.948;7.628;2022-07-29T02:07:19;2.77;;;2.50;;
3369;SDS011;42042;51.948;7.628;2022-07-29T02:09:47;2.60;;;2.40;;
3369;SDS011;42042;51.948;7.628;2022-07-29T02:12:14;6.80;;;2.33;;
3369;SDS011;42042;51.948;7.628;2022-07-29T02:14:44;3.30;;;2.10;;
3369;SDS011;42042;51.948;7.628;2022-07-29T02:17:12;3.47;;;1.97;;
3369;SDS011;42042;51.948;7.628;2022-07-29T02:19:40;2.43;;;2.00;;
3369;SDS011;42042;51.948;7.628;2022-07-29T02:22:11;5.87;;;2.70;;
3369;SDS011;42042;51.948;7.628;2022-07-29T02:24:38;2.10;;;1.90;;
3369;SDS011;42042;51.948;7.628;2022-07-29T02:27:06;2.20;;;1.97;;
3369;SDS011;42042;51.948;7.628;2022-07-29T02:29:34;2.23;;;2.03;;
3369;SDS011;42042;51.948;7.628;2022-07-29T02:32:02;2.83;;;2.37;;
3369;SDS011;42042;51.948;7.628;2022-07-29T02:34:30;5.10;;;2.13;;
3369;SDS011;42042;51.948;7.628;2022-07-29T02:36:57;2.63;;;2.30;;
3369;SDS011;42042;51.948;7.628;2022-07-29T02:39:26;4.17;;;2.00;;
3369;SDS011;42042;51.948;7.628;2022-07-29T02:41:55;6.10;;;2.47;;
3369;SDS011;42042;51.948;7.628;2022-07-29T02:44:24;10.10;;;2.63;;
3369;SDS011;42042;51.948;7.628;2022-07-29T02:46:53;6.27;;;2.97;;
3369;SDS011;42042;51.948;7.628;2022-07-29T02:49:25;7.17;;;2.63;;
3369;SDS011;42042;51.948;7.628;2022-07-29T02:51:57;2.47;;;2.20;;
3369;SDS011;42042;51.948;7.628;2022-07-29T02:54:29;2.70;;;2.50;;
3369;SDS011;42042;51.948;7.628;2022-07-29T02:56:58;9.07;;;2.77;;
3369;SDS011;42042;51.948;7.628;2022-07-29T02:59:26;4.80;;;2.50;;
3369;SDS011;42042;51.948;7.628;2022-07-29T03:01:55;2.57;;;2.37;;
3369;SDS011;42042;51.948;7.628;2022-07-29T03:04:22;3.27;;;2.63;;
3369;SDS011;42042;51.948;7.628;2022-07-29T03:06:51;3.23;;;2.50;;
3369;SDS011;42042;51.948;7.628;2022-07-29T03:09:18;3.10;;;2.20;;
3369;SDS011;42042;51.948;7.628;2022-07-29T03:11:47;5.47;;;2.77;;
3369;SDS011;42042;51.948;7.628;2022-07-29T03:14:15;3.90;;;2.40;;
3369;SDS011;42042;51.948;7.628;2022-07-29T03:16:43;4.03;;;2.40;;
3369;SDS011;42042;51.948;7.628;2022-07-29T03:19:11;5.00;;;2.53;;
3369;SDS011;42042;51.948;7.628;2022-07-29T03:21:39;6.73;;;2.80;;
3369;SDS011;42042;51.948;7.628;2022-07-29T03:24:06;4.23;;;2.10;;
3369;SDS011;42042;51.948;7.628;2022-07-29T03:26:33;4.57;;;2.77;;
3369;SDS011;42042;51.948;7.628;2022-07-29T03:29:02;4.03;;;2.13;;
3369;SDS011;42042;51.948;7.628;2022-07-29T03:31:29;2.97;;;2.67;;
3369;SDS011;42042;51.948;7.628;2022-07-29T03:33:56;3.53;;;2.27;;
3369;SDS011;42042;51.948;7.628;2022-07-29T03:36:23;7.30;;;2.20;;
3369;SDS011;42042;51.948;7.628;2022-07-29T03:38:51;6.17;;;2.50;;
3369;SDS011;42042;51.948;7.628;2022-07-29T03:41:19;5.33;;;2.57;;
3369;SDS011;42042;51.948;7.628;2022-07-29T03:43:49;3.70;;;2.33;;
3369;SDS011;42042;51.948;7.628;2022-07-29T03:46:19;3.77;;;2.30;;
3369;SDS011;42042;51.948;7.628;2022-07-29T03:48:48;5.30;;;2.43;;
3369;SDS011;42042;51.948;7.628;2022-07-29T03:51:17;3.10;;;2.40;;
3369;SDS011;42042;51.948;7.628;2022-07-29T03:53:44;7.37;;;2.30;;
3369;SDS011;42042;51.948;7.628;2022-07-29T03:56:11;6.83;;;2.43;;
3369;SDS011;42042;51.948;7.628;2022-07-29T03:58:42;4.77;;;3.43;;
3369;SDS011;42042;51.948;7.628;2022-07-29T04:01:10;4.50;;;2.60;;
3369;SDS011;42042;51.948;7.628;2022-07-29T04:03:39;12.93;;;3.40;;
3369;SDS011;42042;51.948;7.628;2022-07-29T04:06:07;3.87;;;2.60;;
3369;SDS011;42042;51.948;7.628;2022-07-29T04:08:34;7.63;;;2.50;;
3369;SDS011;42042;51.948;7.628;2022-07-29T04:11:01;5.27;;;2.30;;
3369;SDS011;42042;51.948;7.628;2022-07-29T04:13:29;4.70;;;2.70;;
3369;SDS011;42042;51.948;7.628;2022-07-29T04:15:56;3.23;;;2.50;;
3369;SDS011;42042;51.948;7.628;2022-07-29T04:18:24;3.20;;;2.40;;
3369;SDS011;42042;51.948;7.628;2022-07-29T04:20:52;6.73;;;2.70;;
3369;SDS011;42042;51.948;7.628;2022-07-29T04:23:19;4.67;;;2.20;;
3369;SDS011;42042;51.948;7.628;2022-07-29T04:25:47;2.93;;;2.40;;
3369;SDS011;42042;51.948;7.628;2022-07-29T04:28:14;3.70;;;2.30;;
3369;SDS011;42042;51.948;7.628;2022-07-29T04:30:41;3.73;;;2.30;;
3369;SDS011;42042;51.948;7.628;2022-07-29T04:33:08;8.47;;;2.30;;
3369;SDS011;42042;51.948;7.628;2022-07-29T04:35:37;9.80;;;2.70;;
3369;SDS011;42042;51.948;7.628;2022-07-29T04:38:06;7.83;;;2.60;;
3369;SDS011;42042;51.948;7.628;2022-07-29T04:40:33;10.70;;;2.27;;
3369;SDS011;42042;51.948;7.628;2022-07-29T04:43:01;5.43;;;2.50;;
3369;SDS011;42042;51.948;7.628;2022-07-29T04:45:28;2.93;;;2.10;;
3369;SDS011;42042;51.948;7.628;2022-07-29T04:47:56;2.40;;;2.20;;
3369;SDS011;42042;51.948;7.628;2022-07-29T04:50:23;4.03;;;2.70;;
3369;SDS011;42042;51.948;7.628;2022-07-29T04:52:50;5.53;;;2.80;;
3369;SDS011;42042;51.948;7.628;2022-07-29T04:55:19;2.47;;;2.27;;
3369;SDS011;42042;51.948;7.628;2022-07-29T04:57:46;4.03;;;2.10;;
3369;SDS011;42042;51.948;7.628;2022-07-29T05:00:13;9.57;;;2.40;;
3369;SDS011;42042;51.948;7.628;2022-07-29T05:02:41;3.50;;;2.53;;
3369;SDS011;42042;51.948;7.628;2022-07-29T05:05:08;6.27;;;2.60;;
3369;SDS011;42042;51.948;7.628;2022-07-29T05:07:35;5.40;;;2.60;;
3369;SDS011;42042;51.948;7.628;2022-07-29T05:10:03;9.30;;;2.93;;
3369;SDS011;42042;51.948;7.628;2022-07-29T05:12:31;13.73;;;2.30;;
3369;SDS011;42042;51.948;7.628;2022-07-29T05:14:59;6.53;;;2.43;;
3369;SDS011;42042;51.948;7.628;2022-07-29T05:17:26;6.60;;;2.53;;
3369;SDS011;42042;51.948;7.628;2022-07-29T05:19:53;6.90;;;2.20;;
3369;SDS011;42042;51.948;7.628;2022-07-29T05:22:20;7.70;;;2.97;;
3369;SDS011;42042;51.948;7.628;2022-07-29T05:24:48;2.83;;;2.30;;
3369;SDS011;42042;51.948;7.628;2022-07-29T05:27:15;5.37;;;4.20;;
3369;SDS011;42042;51.948;7.628;2022-07-29T05:29:44;4.17;;;2.00;;
3369;SDS011;42042;51.948;7.628;2022-07-29T05:32:11;5.50;;;2.73;;
3369;SDS011;42042;51.948;7.628;2022-07-29T05:34:38;3.83;;;2.17;;
3369;SDS011;42042;51.948;7.628;2022-07-29T05:37:06;4.67;;;2.60;;
3369;SDS011;42042;51.948;7.628;2022-07-29T05:39:33;7.60;;;2.50;;
3369;SDS011;42042;51.948;7.628;2022-07-29T05:42:00;3.30;;;2.17;;
3369;SDS011;42042;51.948;7.628;2022-07-29T05:44:27;3.30;;;2.30;;
3369;SDS011;42042;51.948;7.628;2022-07-29T05:46:56;6.87;;;2.40;;
3369;SDS011;42042;51.948;7.628;2022-07-29T05:49:23;4.77;;;2.23;;
3369;SDS011;42042;51.948;7.628;2022-07-29T05:51:50;2.90;;;2.43;;
3369;SDS011;42042;51.948;7.628;2022-07-29T05:54:17;6.00;;;2.50;;
3369;SDS011;42042;51.948;7.628;2022-07-29T05:56:45;8.33;;;2.53;;
3369;SDS011;42042;51.948;7.628;2022-07-29T05:59:12;6.93;;;2.30;;
3369;SDS011;42042;51.948;7.628;2022-07-29T06:01:39;4.43;;;2.33;;
3369;SDS011;42042;51.948;7.628;2022-07-29T06:04:08;5.90;;;2.80;;
3369;SDS011;42042;51.948;7.628;2022-07-29T06:06:35;3.67;;;2.87;;
3369;SDS011;42042;51.948;7.628;2022-07-29T06:09:02;3.53;;;3.23;;
3369;SDS011;42042;51.948;7.628;2022-07-29T06:11:30;4.00;;;2.70;;
3369;SDS011;42042;51.948;7.628;2022-07-29T06:13:57;7.13;;;2.57;;
3369;SDS011;42042;51.948;7.628;2022-07-29T06:16:24;5.30;;;2.37;;
3369;SDS011;42042;51.948;7.628;2022-07-29T06:18:51;5.30;;;2.70;;
3369;SDS011;42042;51.948;7.628;2022-07-29T06:21:20;10.47;;;2.57;;
3369;SDS011;42042;51.948;7.628;2022-07-29T06:23:47;5.13;;;2.20;;
3369;SDS011;42042;51.948;7.628;2022-07-29T06:26:14;5.80;;;2.43;;
3369;SDS011;42042;51.948;7.628;2022-07-29T06:28:41;9.83;;;2.50;;
3369;SDS011;42042;51.948;7.628;2022-07-29T06:31:09;2.43;;;2.17;;
3369;SDS011;42042;51.948;7.628;2022-07-29T06:33:36;4.37;;;2.23;;
3369;SDS011;42042;51.948;7.628;2022-07-29T06:36:03;5.20;;;2.73;;
3369;SDS011;42042;51.948;7.628;2022-07-29T06:38:32;3.30;;;2.73;;
3369;SDS011;42042;51.948;7.628;2022-07-29T06:40:59;8.67;;;3.23;;
3369;SDS011;42042;51.948;7.628;2022-07-29T06:43:28;4.23;;;2.30;;
3369;SDS011;42042;51.948;7.628;2022-07-29T06:45:57;3.27;;;2.60;;
3369;SDS011;42042;51.948;7.628;2022-07-29T06:48:24;6.57;;;2.50;;
3369;SDS011;42042;51.948;7.628;2022-07-29T06:50:51;3.63;;;2.47;;
3369;SDS011;42042;51.948;7.628;2022-07-29T06:53:18;4.43;;;3.20;;
3369;SDS011;42042;51.948;7.628;2022-07-29T06:55:47;3.73;;;2.90;;
3369;SDS011;42042;51.948;7.628;2022-07-29T06:58:15;3.17;;;2.57;;
3369;SDS011;42042;51.948;7.628;2022-07-29T07:00:45;5.90;;;3.70;;
3369;SDS011;42042;51.948;7.628;2022-07-29T07:03:12;6.07;;;2.60;;
3369;SDS011;42042;51.948;7.628;2022-07-29T07:05:39;3.00;;;2.50;;
3369;SDS011;42042;51.948;7.628;2022-07-29T07:08:07;2.80;;;2.33;;
3369;SDS011;42042;51.948;7.628;2022-07-29T07:10:34;3.10;;;2.23;;
3369;SDS011;42042;51.948;7.628;2022-07-29T07:13:03;4.90;;;2.50;;
3369;SDS011;42042;51.948;7.628;2022-07-29T07:15:30;4.87;;;2.63;;
3369;SDS011;42042;51.948;7.628;2022-07-29T07:17:58;4.67;;;2.70;;
3369;SDS011;42042;51.948;7.628;2022-07-29T07:20:25;2.70;;;2.50;;
3369;SDS011;42042;51.948;7.628;2022-07-29T07:22:52;6.40;;;3.00;;
3369;SDS011;42042;51.948;7.628;2022-07-29T07:25:19;6.87;;;2.80;;
3369;SDS011;42042;51.948;7.628;2022-07-29T07:27:47;7.90;;;3.00;;
3369;SDS011;42042;51.948;7.628;2022-07-29T07:30:15;7.37;;;2.67;;
3369;SDS011;42042;51.948;7.628;2022-07-29T07:32:42;4.67;;;2.80;;
3369;SDS011;42042;51.948;7.628;2022-07-29T07:35:10;4.50;;;2.70;;
3369;SDS011;42042;51.948;7.628;2022-07-29T07:37:37;4.03;;;3.33;;
3369;SDS011;42042;51.948;7.628;2022-07-29T07:40:05;6.00;;;3.03;;
3369;SDS011;42042;51.948;7.628;2022-07-29T07:42:33;5.10;;;2.97;;
3369;SDS011;42042;51.948;7.628;2022-07-29T07:45:00;6.67;;;3.10;;
3369;SDS011;42042;51.948;7.628;2022-07-29T07:47:29;6.20;;;2.63;;
3369;SDS011;42042;51.948;7.628;2022-07-29T07:49:56;8.90;;;3.50;;
3369;SDS011;42042;51.948;7.628;2022-07-29T07:52:23;5.20;;;3.13;;
3369;SDS011;42042;51.948;7.628;2022-07-29T07:54:50;8.53;;;2.73;;
3369;SDS011;42042;51.948;7.628;2022-07-29T07:57:18;4.03;;;2.90;;
3369;SDS011;42042;51.948;7.628;2022-07-29T07:59:45;3.73;;;2.80;;
3369;SDS011;42042;51.948;7.628;2022-07-29T08:02:12;4.70;;;2.87;;
3369;SDS011;42042;51.948;7.628;2022-07-29T08:04:42;4.67;;;3.57;;
3369;SDS011;42042;51.948;7.628;2022-07-29T08:07:09;4.13;;;2.63;;
3369;SDS011;42042;51.948;7.628;2022-07-29T08:09:36;4.73;;;2.70;;
3369;SDS011;42042;51.948;7.628;2022-07-29T08:12:04;8.30;;;3.03;;
3369;SDS011;42042;51.948;7.628;2022-07-29T08:14:31;6.17;;;3.03;;
3369;SDS011;42042;51.948;7.628;2022-07-29T08:16:59;8.70;;;3.80;;
3369;SDS011;42042;51.948;7.628;2022-07-29T08:19:26;3.73;;;2.70;;
3369;SDS011;42042;51.948;7.628;2022-07-29T08:21:55;9.10;;;3.10;;
3369;SDS011;42042;51.948;7.628;2022-07-29T08:24:22;11.33;;;3.30;;
3369;SDS011;42042;51.948;7.628;2022-07-29T08:27:07;6.90;;;2.50;;
3369;SDS011;42042;51.948;7.628;2022-07-29T08:29:34;6.73;;;2.87;;
3369;SDS011;42042;51.948;7.628;2022-07-29T08:32:02;4.23;;;3.10;;
3369;SDS011;42042;51.948;7.628;2022-07-29T08:34:29;3.80;;;2.60;;
3369;SDS011;42042;51.948;7.628;2022-07-29T08:36:58;7.10;;;2.90;;
3369;SDS011;42042;51.948;7.628;2022-07-29T08:39:25;5.00;;;2.67;;
3369;SDS011;42042;51.948;7.628;2022-07-29T08:41:52;3.50;;;2.67;;
3369;SDS011;42042;51.948;7.628;2022-07-29T08:44:20;2.87;;;2.50;;
3369;SDS011;42042;51.948;7.628;2022-07-29T08:46:47;4.80;;;3.13;;
3369;SDS011;42042;51.948;7.628;2022-07-29T08:49:15;4.83;;;3.10;;
3369;SDS011;42042;51.948;7.628;2022-07-29T08:51:42;3.40;;;2.43;;
3369;SDS011;42042;51.948;7.628;2022-07-29T08:54:12;6.23;;;2.93;;
3369;SDS011;42042;51.948;7.628;2022-07-29T08:56:43;3.93;;;2.70;;
3369;SDS011;42042;51.948;7.628;2022-07-29T08:59:10;5.37;;;2.60;;
3369;SDS011;42042;51.948;7.628;2022-07-29T09:01:38;6.17;;;2.90;;
3369;SDS011;42042;51.948;7.628;2022-07-29T09:04:09;5.40;;;2.90;;
3369;SDS011;42042;51.948;7.628;2022-07-29T09:06:37;6.47;;;2.90;;
3369;SDS011;42042;51.948;7.628;2022-07-29T09:09:07;8.00;;;3.23;;
3369;SDS011;42042;51.948;7.628;2022-07-29T09:11:35;5.97;;;3.17;;
3369;SDS011;42042;51.948;7.628;2022-07-29T09:14:03;8.63;;;3.03;;
3369;SDS011;42042;51.948;7.628;2022-07-29T09:16:49;3.30;;;2.37;;
3369;SDS011;42042;51.948;7.628;2022-07-29T09:19:24;6.40;;;2.63;;
3369;SDS011;42042;51.948;7.628;2022-07-29T09:21:52;6.37;;;2.87;;
3369;SDS011;42042;51.948;7.628;2022-07-29T09:27:18;9.83;;;2.90;;
3369;SDS011;42042;51.948;7.628;2022-07-29T09:29:46;3.27;;;2.90;;
3369;SDS011;42042;51.948;7.628;2022-07-29T09:32:13;7.77;;;2.90;;
3369;SDS011;42042;51.948;7.628;2022-07-29T09:34:40;6.07;;;2.80;;
3369;SDS011;42042;51.948;7.628;2022-07-29T09:37:08;5.73;;;2.90;;
3369;SDS011;42042;51.948;7.628;2022-07-29T09:39:37;6.53;;;2.83;;
3369;SDS011;42042;51.948;7.628;2022-07-29T09:42:11;7.60;;;3.30;;
3369;SDS011;42042;51.948;7.628;2022-07-29T09:44:43;7.93;;;3.10;;
3369;SDS011;42042;51.948;7.628;2022-07-29T09:47:10;7.60;;;3.70;;
3369;SDS011;42042;51.948;7.628;2022-07-29T09:49:50;6.90;;;3.47;;
3369;SDS011;42042;51.948;7.628;2022-07-29T09:52:18;7.70;;;3.30;;
3369;SDS011;42042;51.948;7.628;2022-07-29T09:54:45;5.90;;;2.93;;
3369;SDS011;42042;51.948;7.628;2022-07-29T09:57:23;8.40;;;3.00;;
3369;SDS011;42042;51.948;7.628;2022-07-29T09:59:56;4.00;;;2.77;;
3369;SDS011;42042;51.948;7.628;2022-07-29T10:02:27;4.30;;;3.00;;
3369;SDS011;42042;51.948;7.628;2022-07-29T10:04:55;3.20;;;2.50;;
3369;SDS011;42042;51.948;7.628;2022-07-29T10:07:23;5.57;;;3.93;;
3369;SDS011;42042;51.948;7.628;2022-07-29T10:09:52;7.60;;;3.30;;
3369;SDS011;42042;51.948;7.628;2022-07-29T10:12:20;10.27;;;3.53;;
3369;SDS011;42042;51.948;7.628;2022-07-29T10:14:49;9.10;;;3.63;;
3369;SDS011;42042;51.948;7.628;2022-07-29T10:17:17;8.53;;;4.13;;
3369;SDS011;42042;51.948;7.628;2022-07-29T10:19:44;7.90;;;3.63;;
3369;SDS011;42042;51.948;7.628;2022-07-29T10:22:11;4.67;;;3.53;;
3369;SDS011;42042;51.948;7.628;2022-07-29T10:24:39;7.77;;;4.13;;
3369;SDS011;42042;51.948;7.628;2022-07-29T10:27:07;7.87;;;4.00;;
3369;SDS011;42042;51.948;7.628;2022-07-29T10:29:34;9.73;;;3.80;;
3369;SDS011;42042;51.948;7.628;2022-07-29T10:32:08;5.90;;;3.43;;
3369;SDS011;42042;51.948;7.628;2022-07-29T10:37:20;6.63;;;3.23;;
3369;SDS011;42042;51.948;7.628;2022-07-29T10:39:52;4.87;;;3.83;;
3369;SDS011;42042;51.948;7.628;2022-07-29T10:42:22;5.47;;;3.80;;
3369;SDS011;42042;51.948;7.628;2022-07-29T10:44:50;5.23;;;3.67;;
3369;SDS011;42042;51.948;7.628;2022-07-29T10:47:20;6.20;;;4.20;;
3369;SDS011;42042;51.948;7.628;2022-07-29T10:49:58;6.90;;;3.50;;
3369;SDS011;42042;51.948;7.628;2022-07-29T10:55:07;6.80;;;4.00;;
3369;SDS011;42042;51.948;7.628;2022-07-29T10:57:35;5.67;;;3.50;;
3369;SDS011;42042;51.948;7.628;2022-07-29T11:03:01;8.17;;;4.97;;
3369;SDS011;42042;51.948;7.628;2022-07-29T11:05:28;5.90;;;3.70;;
3369;SDS011;42042;51.948;7.628;2022-07-29T11:10:38;6.23;;;3.87;;
3369;SDS011;42042;51.948;7.628;2022-07-29T11:13:06;4.23;;;3.80;;
3369;SDS011;42042;51.948;7.628;2022-07-29T11:15:51;10.40;;;3.93;;
3369;SDS011;42042;51.948;7.628;2022-07-29T11:18:20;9.77;;;3.93;;
3369;SDS011;42042;51.948;7.628;2022-07-29T11:20:48;8.10;;;4.10;;
3369;SDS011;42042;51.948;7.628;2022-07-29T11:23:22;6.57;;;3.87;;
3369;SDS011;42042;51.948;7.628;2022-07-29T11:28:37;8.93;;;3.97;;
3369;SDS011;42042;51.948;7.628;2022-07-29T11:31:06;8.23;;;4.03;;
3369;SDS011;42042;51.948;7.628;2022-07-29T11:33:37;8.20;;;4.33;;
3369;SDS011;42042;51.948;7.628;2022-07-29T11:36:08;5.67;;;3.60;;
3369;SDS011;42042;51.948;7.628;2022-07-29T11:38:36;7.60;;;4.30;;
3369;SDS011;42042;51.948;7.628;2022-07-29T11:43:52;6.37;;;4.27;;
3369;SDS011;42042;51.948;7.628;2022-07-29T11:49:07;6.77;;;3.90;;
3369;SDS011;42042;51.948;7.628;2022-07-29T11:51:35;6.30;;;4.60;;
3369;SDS011;42042;51.948;7.628;2022-07-29T11:54:02;6.40;;;4.63;;
3369;SDS011;42042;51.948;7.628;2022-07-29T11:56:30;5.70;;;5.00;;
3369;SDS011;42042;51.948;7.628;2022-07-29T11:59:02;8.83;;;5.20;;
3369;SDS011;42042;51.948;7.628;2022-07-29T12:01:31;12.13;;;4.93;;
3369;SDS011;42042;51.948;7.628;2022-07-29T12:04:02;6.30;;;4.60;;
3369;SDS011;42042;51.948;7.628;2022-07-29T12:06:31;5.87;;;4.60;;
3369;SDS011;42042;51.948;7.628;2022-07-29T12:08:58;6.73;;;4.87;;
3369;SDS011;42042;51.948;7.628;2022-07-29T12:11:25;13.27;;;5.67;;
3369;SDS011;42042;51.948;7.628;2022-07-29T12:13:53;10.63;;;5.07;;
3369;SDS011;42042;51.948;7.628;2022-07-29T12:16:20;5.77;;;4.83;;
3369;SDS011;42042;51.948;7.628;2022-07-29T12:18:54;5.73;;;4.60;;
3369;SDS011;42042;51.948;7.628;2022-07-29T12:21:21;8.40;;;5.07;;
3369;SDS011;42042;51.948;7.628;2022-07-29T12:23:53;5.33;;;4.73;;
3369;SDS011;42042;51.948;7.628;2022-07-29T12:26:20;7.17;;;4.47;;
3369;SDS011;42042;51.948;7.628;2022-07-29T12:28:48;17.00;;;6.23;;
3369;SDS011;42042;51.948;7.628;2022-07-29T12:31:15;5.23;;;4.67;;
3369;SDS011;42042;51.948;7.628;2022-07-29T12:33:42;7.97;;;5.13;;
3369;SDS011;42042;51.948;7.628;2022-07-29T12:36:19;11.33;;;5.00;;
3369;SDS011;42042;51.948;7.628;2022-07-29T12:38:47;7.50;;;5.60;;
3369;SDS011;42042;51.948;7.628;2022-07-29T12:41:15;5.63;;;4.70;;
3369;SDS011;42042;51.948;7.628;2022-07-29T12:43:51;8.50;;;4.60;;
3369;SDS011;42042;51.948;7.628;2022-07-29T12:46:19;8.77;;;6.03;;
3369;SDS011;42042;51.948;7.628;2022-07-29T12:48:49;7.37;;;5.17;;
3369;SDS011;42042;51.948;7.628;2022-07-29T12:51:25;15.07;;;5.73;;
3369;SDS011;42042;51.948;7.628;2022-07-29T12:54:02;5.80;;;4.83;;
3369;SDS011;42042;51.948;7.628;2022-07-29T12:56:31;6.30;;;4.77;;
3369;SDS011;42042;51.948;7.628;2022-07-29T12:58:58;10.20;;;4.30;;
3369;SDS011;42042;51.948;7.628;2022-07-29T13:01:25;5.20;;;4.17;;
3369;SDS011;42042;51.948;7.628;2022-07-29T13:03:53;7.10;;;4.60;;
3369;SDS011;42042;51.948;7.628;2022-07-29T13:06:31;8.37;;;5.20;;
3369;SDS011;42042;51.948;7.628;2022-07-29T13:09:03;7.10;;;5.47;;
3369;SDS011;42042;51.948;7.628;2022-07-29T13:11:33;5.83;;;4.37;;
3369;SDS011;42042;51.948;7.628;2022-07-29T13:14:00;9.73;;;5.10;;
3369;SDS011;42042;51.948;7.628;2022-07-29T13:16:27;9.10;;;4.40;;
3369;SDS011;42042;51.948;7.628;2022-07-29T13:19:07;11.33;;;4.60;;
3369;SDS011;42042;51.948;7.628;2022-07-29T13:21:35;11.10;;;4.47;;
3369;SDS011;42042;51.948;7.628;2022-07-29T13:24:03;6.57;;;4.90;;
3369;SDS011;42042;51.948;7.628;2022-07-29T13:26:32;8.93;;;5.20;;
3369;SDS011;42042;51.948;7.628;2022-07-29T13:29:00;7.43;;;4.80;;
3369;SDS011;42042;51.948;7.628;2022-07-29T13:31:27;4.77;;;4.03;;
3369;SDS011;42042;51.948;7.628;2022-07-29T13:33:54;5.80;;;4.43;;
3369;SDS011;42042;51.948;7.628;2022-07-29T13:36:22;8.10;;;4.73;;
3369;SDS011;42042;51.948;7.628;2022-07-29T13:38:49;12.17;;;4.90;;
3369;SDS011;42042;51.948;7.628;2022-07-29T13:41:16;10.20;;;4.30;;
3369;SDS011;42042;51.948;7.628;2022-07-29T13:43:45;6.93;;;4.47;;
3369;SDS011;42042;51.948;7.628;2022-07-29T13:46:12;5.17;;;4.67;;
3369;SDS011;42042;51.948;7.628;2022-07-29T13:48:39;7.53;;;4.83;;
3369;SDS011;42042;51.948;7.628;2022-07-29T13:51:07;10.50;;;4.40;;
3369;SDS011;42042;51.948;7.628;2022-07-29T13:53:34;7.30;;;4.47;;
3369;SDS011;42042;51.948;7.628;2022-07-29T13:56:01;6.63;;;4.70;;
3369;SDS011;42042;51.948;7.628;2022-07-29T13:58:30;8.80;;;4.80;;
3369;SDS011;42042;51.948;7.628;2022-07-29T14:00:59;8.73;;;5.27;;
3369;SDS011;42042;51.948;7.628;2022-07-29T14:03:27;7.13;;;5.53;;
3369;SDS011;42042;51.948;7.628;2022-07-29T14:05:54;9.00;;;3.70;;
3369;SDS011;42042;51.948;7.628;2022-07-29T14:08:24;6.27;;;5.20;;
3369;SDS011;42042;51.948;7.628;2022-07-29T14:10:52;15.03;;;3.80;;
3369;SDS011;42042;51.948;7.628;2022-07-29T14:13:19;5.10;;;4.07;;
3369;SDS011;42042;51.948;7.628;2022-07-29T14:15:46;11.53;;;3.70;;
3369;SDS011;42042;51.948;7.628;2022-07-29T14:18:15;5.63;;;3.63;;
3369;SDS011;42042;51.948;7.628;2022-07-29T14:20:42;6.57;;;3.60;;
3369;SDS011;42042;51.948;7.628;2022-07-29T14:23:09;6.53;;;4.07;;
3369;SDS011;42042;51.948;7.628;2022-07-29T14:25:36;5.77;;;3.43;;
3369;SDS011;42042;51.948;7.628;2022-07-29T14:28:04;5.53;;;4.07;;
3369;SDS011;42042;51.948;7.628;2022-07-29T14:30:32;10.10;;;3.70;;
3369;SDS011;42042;51.948;7.628;2022-07-29T14:32:59;6.67;;;3.63;;
3369;SDS011;42042;51.948;7.628;2022-07-29T14:35:28;9.37;;;5.47;;
3369;SDS011;42042;51.948;7.628;2022-07-29T14:37:55;10.00;;;4.90;;
3369;SDS011;42042;51.948;7.628;2022-07-29T14:40:22;6.00;;;3.87;;
3369;SDS011;42042;51.948;7.628;2022-07-29T14:42:50;6.77;;;3.50;;
3369;SDS011;42042;51.948;7.628;2022-07-29T14:45:18;5.23;;;3.60;;
3369;SDS011;42042;51.948;7.628;2022-07-29T14:47:45;7.90;;;3.40;;
3369;SDS011;42042;51.948;7.628;2022-07-29T14:50:14;16.53;;;4.90;;
3369;SDS011;42042;51.948;7.628;2022-07-29T14:52:42;8.80;;;4.17;;
3369;SDS011;42042;51.948;7.628;2022-07-29T14:55:09;6.70;;;3.80;;
3369;SDS011;42042;51.948;7.628;2022-07-29T14:57:37;6.47;;;3.57;;
3369;SDS011;42042;51.948;7.628;2022-07-29T15:00:05;6.27;;;3.27;;
3369;SDS011;42042;51.948;7.628;2022-07-29T15:02:33;4.60;;;3.00;;
3369;SDS011;42042;51.948;7.628;2022-07-29T15:05:00;8.87;;;3.10;;
3369;SDS011;42042;51.948;7.628;2022-07-29T15:07:27;7.10;;;3.20;;
3369;SDS011;42042;51.948;7.628;2022-07-29T15:09:56;9.20;;;3.47;;
3369;SDS011;42042;51.948;7.628;2022-07-29T15:12:23;3.57;;;3.00;;
3369;SDS011;42042;51.948;7.628;2022-07-29T15:14:50;8.00;;;4.07;;
3369;SDS011;42042;51.948;7.628;2022-07-29T15:17:18;5.67;;;3.37;;
3369;SDS011;42042;51.948;7.628;2022-07-29T15:19:45;3.77;;;2.80;;
3369;SDS011;42042;51.948;7.628;2022-07-29T15:22:13;5.70;;;3.27;;
3369;SDS011;42042;51.948;7.628;2022-07-29T15:24:40;5.27;;;2.87;;
3369;SDS011;42042;51.948;7.628;2022-07-29T15:27:08;3.80;;;3.30;;
3369;SDS011;42042;51.948;7.628;2022-07-29T15:29:39;3.57;;;3.27;;
3369;SDS011;42042;51.948;7.628;2022-07-29T15:32:06;8.67;;;4.00;;